Can Warship 707 — CGBV — position and weather

sailwx.info

Track history (hours):
 
Tides and Currents Weather Stations Pressure Air Temp Water Temp Dewpoint Dewpoint Depression Visibility Wind Speed Wind Dir Waves Ship Positions

Can Warship 707

Last reported at 2016-Jul-19 18:29 UTC. Time now 2016-Jul-26 14:07 UTC.
Position N 49°23' W 058°23'.

Length 55 m; draft 5 m.

Type: Military. MMSI: 316200000.

Date/timePositionNaut miles runAvg speedWind from/ knotsBaromVisibWave heightAir tempDewpointWater temp
2016-Jul-19 18:29N 49°23' W 058°23'5 4.7
2016-Jul-19 17:24N 49°18' W 058°24'7 7.4
2016-Jul-19 16:27N 49°13' W 058°18'6 5.6
2016-Jul-19 15:28N 49°13' W 058°26'5 5.2
2016-Jul-19 14:33N 49°14' W 058°19'3 3.2
2016-Jul-19 13:34N 49°11' W 058°20'4 2.6
2016-Jul-19 12:08N 49°15' W 058°20'3 5.5
2016-Jul-19 11:33N 49°11' W 058°20'  
2016-Jul-13 13:11N 46°12' W 072°51'812.3
2016-Jul-13 12:33N 46°07' W 072°58'6 6.3
2016-Jul-13 11:33N 46°04' W 073°06'0 0.0
2016-Jul-13 10:33N 46°04' W 073°06'0 0.0
2016-Jul-13 09:33N 46°04' W 073°06'0 0.0
2016-Jul-13 08:33N 46°04' W 073°06'0 0.0
2016-Jul-13 07:30N 46°04' W 073°06'0 0.0
2016-Jul-13 06:30N 46°04' W 073°06'0 0.0
2016-Jul-13 05:30N 46°04' W 073°06'0 0.0
2016-Jul-13 04:33N 46°04' W 073°06'0 0.0
2016-Jul-13 03:33N 46°04' W 073°06'0 0.0
2016-Jul-13 02:24N 46°04' W 073°06'0 0.0
2016-Jul-13 01:33N 46°04' W 073°06'0 0.0
2016-Jul-13 00:30N 46°04' W 073°06'6 6.6
2016-Jul-12 23:33N 45°59' W 073°12'1515.4
2016-Jul-12 22:33N 45°46' W 073°23'1313.2
2016-Jul-12 21:34N 45°34' W 073°31'9 3.9
2016-Jul-12 19:15N 45°25' W 073°32'2 2.4
2016-Jul-12 18:34N 45°24' W 073°34'5 5.4
2016-Jul-12 17:33N 45°25' W 073°42'1110.9
2016-Jul-12 16:33N 45°19' W 073°55'1 1.2
2016-Jul-12 15:33N 45°18' W 073°56'6 6.0
2016-Jul-12 14:33N 45°14' W 074°01'26 3.5
2016-Jul-12 07:05N 45°02' W 074°35'  
Track history (hours):
 
Tides and Currents Weather Stations Pressure Air Temp Water Temp Dewpoint Dewpoint Depression Visibility Wind Speed Wind Dir Waves Ship Positions

Can Warship 707

Last reported at 2016-Jul-19 18:29 UTC. Time now 2016-Jul-26 14:07 UTC.
Position N 49°23' W 058°23'.

Length 55 m; draft 5 m.

Type: Military. MMSI: 316200000.

Date/timePositionNaut miles runAvg speedWind from/ knotsBaromVisibWave heightAir tempDewpointWater temp
2016-Jul-19 18:29N 49°23' W 058°23'5 4.7
2016-Jul-19 17:24N 49°18' W 058°24'7 7.4
2016-Jul-19 16:27N 49°13' W 058°18'6 5.6
2016-Jul-19 15:28N 49°13' W 058°26'5 5.2
2016-Jul-19 14:33N 49°14' W 058°19'3 3.2
2016-Jul-19 13:34N 49°11' W 058°20'4 2.6
2016-Jul-19 12:08N 49°15' W 058°20'3 5.5
2016-Jul-19 11:33N 49°11' W 058°20'  
2016-Jul-13 13:11N 46°12' W 072°51'812.3
2016-Jul-13 12:33N 46°07' W 072°58'6 6.3
2016-Jul-13 11:33N 46°04' W 073°06'0 0.0
2016-Jul-13 10:33N 46°04' W 073°06'0 0.0
2016-Jul-13 09:33N 46°04' W 073°06'0 0.0
2016-Jul-13 08:33N 46°04' W 073°06'0 0.0
2016-Jul-13 07:30N 46°04' W 073°06'0 0.0
2016-Jul-13 06:30N 46°04' W 073°06'0 0.0
2016-Jul-13 05:30N 46°04' W 073°06'0 0.0
2016-Jul-13 04:33N 46°04' W 073°06'0 0.0
2016-Jul-13 03:33N 46°04' W 073°06'0 0.0
2016-Jul-13 02:24N 46°04' W 073°06'0 0.0
2016-Jul-13 01:33N 46°04' W 073°06'0 0.0
2016-Jul-13 00:30N 46°04' W 073°06'6 6.6
2016-Jul-12 23:33N 45°59' W 073°12'1515.4
2016-Jul-12 22:33N 45°46' W 073°23'1313.2
2016-Jul-12 21:34N 45°34' W 073°31'9 3.9
2016-Jul-12 19:15N 45°25' W 073°32'2 2.4
2016-Jul-12 18:34N 45°24' W 073°34'5 5.4
2016-Jul-12 17:33N 45°25' W 073°42'1110.9
2016-Jul-12 16:33N 45°19' W 073°55'1 1.2
2016-Jul-12 15:33N 45°18' W 073°56'6 6.0
2016-Jul-12 14:33N 45°14' W 074°01'26 3.5
2016-Jul-12 07:05N 45°02' W 074°35'  

Dump ship's entire track history